sensor_id;sensor_type;location;lat;lon;timestamp;temperature;humidity
75824;DHT22;64457;51.976;9.834;2024-02-28T00:00:14;7.10;95.80
75824;DHT22;64457;51.976;9.834;2024-02-28T00:02:42;7.10;95.90
75824;DHT22;64457;51.976;9.834;2024-02-28T00:05:09;7.00;95.80
75824;DHT22;64457;51.976;9.834;2024-02-28T00:07:38;7.00;95.90
75824;DHT22;64457;51.976;9.834;2024-02-28T00:10:07;7.10;95.70
75824;DHT22;64457;51.976;9.834;2024-02-28T00:12:35;7.20;95.30
75824;DHT22;64457;51.976;9.834;2024-02-28T00:15:04;7.10;95.30
75824;DHT22;64457;51.976;9.834;2024-02-28T00:17:38;7.10;95.20
75824;DHT22;64457;51.976;9.834;2024-02-28T00:20:07;7.10;95.10
75824;DHT22;64457;51.976;9.834;2024-02-28T00:22:36;6.90;95.20
75824;DHT22;64457;51.976;9.834;2024-02-28T00:25:05;6.70;95.50
75824;DHT22;64457;51.976;9.834;2024-02-28T00:27:34;6.40;96.00
75824;DHT22;64457;51.976;9.834;2024-02-28T00:30:02;6.10;96.70
75824;DHT22;64457;51.976;9.834;2024-02-28T00:32:32;6.00;97.10
75824;DHT22;64457;51.976;9.834;2024-02-28T00:35:02;6.00;97.10
75824;DHT22;64457;51.976;9.834;2024-02-28T00:37:30;5.70;97.40
75824;DHT22;64457;51.976;9.834;2024-02-28T00:39:58;5.80;97.90
75824;DHT22;64457;51.976;9.834;2024-02-28T00:42:26;5.90;97.30
75824;DHT22;64457;51.976;9.834;2024-02-28T00:44:53;5.90;96.90
75824;DHT22;64457;51.976;9.834;2024-02-28T00:47:27;5.90;96.90
75824;DHT22;64457;51.976;9.834;2024-02-28T00:49:59;5.80;96.90
75824;DHT22;64457;51.976;9.834;2024-02-28T00:52:28;5.90;96.80
75824;DHT22;64457;51.976;9.834;2024-02-28T00:54:59;5.80;96.80
75824;DHT22;64457;51.976;9.834;2024-02-28T00:57:29;5.80;96.80
75824;DHT22;64457;51.976;9.834;2024-02-28T00:59:56;5.90;96.80
75824;DHT22;64457;51.976;9.834;2024-02-28T01:02:24;5.90;96.50
75824;DHT22;64457;51.976;9.834;2024-02-28T01:04:51;5.80;96.40
75824;DHT22;64457;51.976;9.834;2024-02-28T01:07:19;5.80;96.60
75824;DHT22;64457;51.976;9.834;2024-02-28T01:09:46;5.90;96.90
75824;DHT22;64457;51.976;9.834;2024-02-28T01:12:15;5.90;96.70
75824;DHT22;64457;51.976;9.834;2024-02-28T01:14:42;5.70;96.90
75824;DHT22;64457;51.976;9.834;2024-02-28T01:17:09;5.40;97.50
75824;DHT22;64457;51.976;9.834;2024-02-28T01:19:37;5.30;98.20
75824;DHT22;64457;51.976;9.834;2024-02-28T01:22:06;5.40;98.30
75824;DHT22;64457;51.976;9.834;2024-02-28T01:24:34;5.60;97.80
75824;DHT22;64457;51.976;9.834;2024-02-28T01:27:02;5.70;97.40
75824;DHT22;64457;51.976;9.834;2024-02-28T01:29:31;5.40;97.80
75824;DHT22;64457;51.976;9.834;2024-02-28T01:31:59;5.00;98.60
75824;DHT22;64457;51.976;9.834;2024-02-28T01:34:26;4.70;99.50
75824;DHT22;64457;51.976;9.834;2024-02-28T01:36:54;4.80;99.50
75824;DHT22;64457;51.976;9.834;2024-02-28T01:39:24;5.00;99.10
75824;DHT22;64457;51.976;9.834;2024-02-28T01:41:52;5.20;98.70
75824;DHT22;64457;51.976;9.834;2024-02-28T01:44:20;5.40;98.40
75824;DHT22;64457;51.976;9.834;2024-02-28T01:46:49;5.50;98.00
75824;DHT22;64457;51.976;9.834;2024-02-28T01:49:17;5.50;97.60
75824;DHT22;64457;51.976;9.834;2024-02-28T01:51:45;5.40;97.50
75824;DHT22;64457;51.976;9.834;2024-02-28T01:54:14;5.20;98.00
75824;DHT22;64457;51.976;9.834;2024-02-28T01:56:43;5.30;97.90
75824;DHT22;64457;51.976;9.834;2024-02-28T01:59:11;5.40;97.60
75824;DHT22;64457;51.976;9.834;2024-02-28T02:01:38;5.40;97.20
75824;DHT22;64457;51.976;9.834;2024-02-28T02:04:07;5.30;97.40
75824;DHT22;64457;51.976;9.834;2024-02-28T02:06:38;5.30;97.50
75824;DHT22;64457;51.976;9.834;2024-02-28T02:09:09;5.30;97.40
75824;DHT22;64457;51.976;9.834;2024-02-28T02:11:37;5.10;97.30
75824;DHT22;64457;51.976;9.834;2024-02-28T02:14:06;4.80;97.60
75824;DHT22;64457;51.976;9.834;2024-02-28T02:16:34;4.60;98.30
75824;DHT22;64457;51.976;9.834;2024-02-28T02:19:02;4.50;98.40
75824;DHT22;64457;51.976;9.834;2024-02-28T02:21:32;4.50;98.40
75824;DHT22;64457;51.976;9.834;2024-02-28T02:24:03;4.60;98.30
75824;DHT22;64457;51.976;9.834;2024-02-28T02:26:31;4.60;98.10
75824;DHT22;64457;51.976;9.834;2024-02-28T02:28:58;4.60;98.00
75824;DHT22;64457;51.976;9.834;2024-02-28T02:31:25;4.50;98.20
75824;DHT22;64457;51.976;9.834;2024-02-28T02:33:53;4.40;98.40
75824;DHT22;64457;51.976;9.834;2024-02-28T02:36:21;4.30;98.70
75824;DHT22;64457;51.976;9.834;2024-02-28T02:38:49;4.30;98.50
75824;DHT22;64457;51.976;9.834;2024-02-28T02:41:20;4.40;98.50
75824;DHT22;64457;51.976;9.834;2024-02-28T02:43:47;4.40;98.40
75824;DHT22;64457;51.976;9.834;2024-02-28T02:46:15;4.50;98.10
75824;DHT22;64457;51.976;9.834;2024-02-28T02:48:43;4.20;98.20
75824;DHT22;64457;51.976;9.834;2024-02-28T02:51:10;4.00;98.80
75824;DHT22;64457;51.976;9.834;2024-02-28T02:53:38;3.80;99.30
75824;DHT22;64457;51.976;9.834;2024-02-28T02:56:07;3.80;99.90
75824;DHT22;64457;51.976;9.834;2024-02-28T02:58:36;3.80;99.90
75824;DHT22;64457;51.976;9.834;2024-02-28T03:01:04;3.90;99.80
75824;DHT22;64457;51.976;9.834;2024-02-28T03:03:31;4.00;99.50
75824;DHT22;64457;51.976;9.834;2024-02-28T03:05:58;4.00;99.70
75824;DHT22;64457;51.976;9.834;2024-02-28T03:08:26;4.20;99.50
75824;DHT22;64457;51.976;9.834;2024-02-28T03:10:53;4.30;98.90
75824;DHT22;64457;51.976;9.834;2024-02-28T03:13:20;4.30;98.60
75824;DHT22;64457;51.976;9.834;2024-02-28T03:15:50;4.30;98.30
75824;DHT22;64457;51.976;9.834;2024-02-28T03:18:17;4.30;98.40
75824;DHT22;64457;51.976;9.834;2024-02-28T03:20:44;4.20;98.60
75824;DHT22;64457;51.976;9.834;2024-02-28T03:23:15;4.10;98.60
75824;DHT22;64457;51.976;9.834;2024-02-28T03:25:42;3.90;99.20
75824;DHT22;64457;51.976;9.834;2024-02-28T03:28:11;3.80;99.50
75824;DHT22;64457;51.976;9.834;2024-02-28T03:30:38;3.90;99.30
75824;DHT22;64457;51.976;9.834;2024-02-28T03:33:09;4.00;98.90
75824;DHT22;64457;51.976;9.834;2024-02-28T03:35:36;4.20;98.70
75824;DHT22;64457;51.976;9.834;2024-02-28T03:38:06;4.20;98.10
75824;DHT22;64457;51.976;9.834;2024-02-28T03:40:33;3.80;98.50
75824;DHT22;64457;51.976;9.834;2024-02-28T03:43:00;3.40;99.50
75824;DHT22;64457;51.976;9.834;2024-02-28T03:45:28;3.20;99.90
75824;DHT22;64457;51.976;9.834;2024-02-28T03:47:57;3.30;99.90
75824;DHT22;64457;51.976;9.834;2024-02-28T03:50:26;3.50;99.90
75824;DHT22;64457;51.976;9.834;2024-02-28T03:52:54;3.80;99.70
75824;DHT22;64457;51.976;9.834;2024-02-28T03:55:21;4.00;99.10
75824;DHT22;64457;51.976;9.834;2024-02-28T03:57:49;4.00;98.80
75824;DHT22;64457;51.976;9.834;2024-02-28T04:00:18;4.00;98.70
75824;DHT22;64457;51.976;9.834;2024-02-28T04:02:46;4.10;98.60
75824;DHT22;64457;51.976;9.834;2024-02-28T04:05:16;3.80;98.80
75824;DHT22;64457;51.976;9.834;2024-02-28T04:07:45;3.60;99.50
75824;DHT22;64457;51.976;9.834;2024-02-28T04:10:13;3.50;99.50
75824;DHT22;64457;51.976;9.834;2024-02-28T04:12:43;3.60;99.40
75824;DHT22;64457;51.976;9.834;2024-02-28T04:15:11;3.60;99.40
75824;DHT22;64457;51.976;9.834;2024-02-28T04:17:39;3.60;99.50
75824;DHT22;64457;51.976;9.834;2024-02-28T04:20:09;3.50;99.70
75824;DHT22;64457;51.976;9.834;2024-02-28T04:22:39;3.60;99.80
75824;DHT22;64457;51.976;9.834;2024-02-28T04:25:10;3.50;99.90
75824;DHT22;64457;51.976;9.834;2024-02-28T04:27:38;3.20;99.90
75824;DHT22;64457;51.976;9.834;2024-02-28T04:30:06;3.30;99.90
75824;DHT22;64457;51.976;9.834;2024-02-28T04:32:34;3.40;99.90
75824;DHT22;64457;51.976;9.834;2024-02-28T04:35:04;3.40;99.90
75824;DHT22;64457;51.976;9.834;2024-02-28T04:37:32;3.40;99.90
75824;DHT22;64457;51.976;9.834;2024-02-28T04:40:00;3.50;99.90
75824;DHT22;64457;51.976;9.834;2024-02-28T04:42:29;3.70;99.90
75824;DHT22;64457;51.976;9.834;2024-02-28T04:44:56;3.90;99.80
75824;DHT22;64457;51.976;9.834;2024-02-28T04:47:25;4.00;99.70
75824;DHT22;64457;51.976;9.834;2024-02-28T04:49:52;4.00;99.60
75824;DHT22;64457;51.976;9.834;2024-02-28T04:52:20;3.90;99.90
75824;DHT22;64457;51.976;9.834;2024-02-28T04:54:47;3.90;99.90
75824;DHT22;64457;51.976;9.834;2024-02-28T04:57:15;4.10;99.90
75824;DHT22;64457;51.976;9.834;2024-02-28T04:59:44;4.00;99.40
75824;DHT22;64457;51.976;9.834;2024-02-28T05:02:12;3.90;99.40
75824;DHT22;64457;51.976;9.834;2024-02-28T05:04:39;4.00;99.30
75824;DHT22;64457;51.976;9.834;2024-02-28T05:07:06;3.70;99.20
75824;DHT22;64457;51.976;9.834;2024-02-28T05:09:34;3.30;99.50
75824;DHT22;64457;51.976;9.834;2024-02-28T05:12:02;3.10;99.90
75824;DHT22;64457;51.976;9.834;2024-02-28T05:14:29;3.00;99.90
75824;DHT22;64457;51.976;9.834;2024-02-28T05:16:58;2.80;99.90
75824;DHT22;64457;51.976;9.834;2024-02-28T05:19:25;2.80;99.90
75824;DHT22;64457;51.976;9.834;2024-02-28T05:21:53;2.90;99.90
75824;DHT22;64457;51.976;9.834;2024-02-28T05:24:20;3.00;99.90
75824;DHT22;64457;51.976;9.834;2024-02-28T05:26:47;3.40;99.90
75824;DHT22;64457;51.976;9.834;2024-02-28T05:29:14;3.70;99.90
75824;DHT22;64457;51.976;9.834;2024-02-28T05:31:42;4.00;99.90
75824;DHT22;64457;51.976;9.834;2024-02-28T05:34:10;4.10;99.90
75824;DHT22;64457;51.976;9.834;2024-02-28T05:36:40;4.30;99.70
75824;DHT22;64457;51.976;9.834;2024-02-28T05:39:07;4.30;99.50
75824;DHT22;64457;51.976;9.834;2024-02-28T05:41:35;4.40;99.40
75824;DHT22;64457;51.976;9.834;2024-02-28T05:44:02;4.40;98.90
75824;DHT22;64457;51.976;9.834;2024-02-28T05:46:32;4.50;98.90
75824;DHT22;64457;51.976;9.834;2024-02-28T05:48:59;4.50;98.80
75824;DHT22;64457;51.976;9.834;2024-02-28T05:51:30;4.50;98.50
75824;DHT22;64457;51.976;9.834;2024-02-28T05:53:57;4.40;98.50
75824;DHT22;64457;51.976;9.834;2024-02-28T05:56:25;4.50;98.50
75824;DHT22;64457;51.976;9.834;2024-02-28T05:58:52;4.60;98.40
75824;DHT22;64457;51.976;9.834;2024-02-28T06:01:19;4.80;98.50
75824;DHT22;64457;51.976;9.834;2024-02-28T06:03:47;4.90;98.00
75824;DHT22;64457;51.976;9.834;2024-02-28T06:06:15;5.00;98.20
75824;DHT22;64457;51.976;9.834;2024-02-28T06:08:44;4.90;98.30
75824;DHT22;64457;51.976;9.834;2024-02-28T06:11:11;5.00;98.40
75824;DHT22;64457;51.976;9.834;2024-02-28T06:13:41;4.50;98.80
75824;DHT22;64457;51.976;9.834;2024-02-28T06:16:13;4.20;99.90
75824;DHT22;64457;51.976;9.834;2024-02-28T06:18:41;4.10;99.90
75824;DHT22;64457;51.976;9.834;2024-02-28T06:21:09;4.30;99.90
75824;DHT22;64457;51.976;9.834;2024-02-28T06:23:36;4.50;99.90
75824;DHT22;64457;51.976;9.834;2024-02-28T06:26:05;4.60;99.90
75824;DHT22;64457;51.976;9.834;2024-02-28T06:28:32;4.90;99.80
75824;DHT22;64457;51.976;9.834;2024-02-28T06:30:59;5.00;99.20
75824;DHT22;64457;51.976;9.834;2024-02-28T06:33:27;5.30;99.00
75824;DHT22;64457;51.976;9.834;2024-02-28T06:35:54;5.40;98.50
75824;DHT22;64457;51.976;9.834;2024-02-28T06:38:23;5.60;98.20
75824;DHT22;64457;51.976;9.834;2024-02-28T06:40:50;5.40;98.60
75824;DHT22;64457;51.976;9.834;2024-02-28T06:43:19;5.40;98.70
75824;DHT22;64457;51.976;9.834;2024-02-28T06:45:46;5.50;98.70
75824;DHT22;64457;51.976;9.834;2024-02-28T06:48:14;5.60;99.10
75824;DHT22;64457;51.976;9.834;2024-02-28T06:50:41;5.80;98.80
75824;DHT22;64457;51.976;9.834;2024-02-28T06:53:08;5.70;98.50
75824;DHT22;64457;51.976;9.834;2024-02-28T06:55:36;5.80;98.90
75824;DHT22;64457;51.976;9.834;2024-02-28T06:58:04;5.70;98.60
75824;DHT22;64457;51.976;9.834;2024-02-28T07:00:33;5.80;98.60
75824;DHT22;64457;51.976;9.834;2024-02-28T07:03:00;5.40;99.20
75824;DHT22;64457;51.976;9.834;2024-02-28T07:05:28;5.50;99.90
75824;DHT22;64457;51.976;9.834;2024-02-28T07:07:55;5.70;99.50
75824;DHT22;64457;51.976;9.834;2024-02-28T07:10:22;5.70;99.00
75824;DHT22;64457;51.976;9.834;2024-02-28T07:12:50;5.80;99.30
75824;DHT22;64457;51.976;9.834;2024-02-28T07:15:18;5.70;99.10
75824;DHT22;64457;51.976;9.834;2024-02-28T07:17:48;5.70;99.70
75824;DHT22;64457;51.976;9.834;2024-02-28T07:20:16;5.60;99.60
75824;DHT22;64457;51.976;9.834;2024-02-28T07:22:43;5.50;99.90
75824;DHT22;64457;51.976;9.834;2024-02-28T07:25:12;5.70;99.90
75824;DHT22;64457;51.976;9.834;2024-02-28T07:27:39;6.10;99.90
75824;DHT22;64457;51.976;9.834;2024-02-28T07:30:07;6.10;99.00
75824;DHT22;64457;51.976;9.834;2024-02-28T07:32:35;6.30;99.20
75824;DHT22;64457;51.976;9.834;2024-02-28T07:35:05;6.40;98.30
75824;DHT22;64457;51.976;9.834;2024-02-28T07:37:33;6.30;98.20
75824;DHT22;64457;51.976;9.834;2024-02-28T07:40:00;6.40;98.50
75824;DHT22;64457;51.976;9.834;2024-02-28T07:42:28;6.40;98.30
75824;DHT22;64457;51.976;9.834;2024-02-28T07:44:56;6.60;98.80
75824;DHT22;64457;51.976;9.834;2024-02-28T07:47:23;6.80;98.10
75824;DHT22;64457;51.976;9.834;2024-02-28T07:49:51;6.90;97.70
75824;DHT22;64457;51.976;9.834;2024-02-28T07:52:20;6.80;97.70
75824;DHT22;64457;51.976;9.834;2024-02-28T07:54:48;6.80;98.20
75824;DHT22;64457;51.976;9.834;2024-02-28T07:57:21;7.00;98.10
75824;DHT22;64457;51.976;9.834;2024-02-28T07:59:49;7.10;97.80
75824;DHT22;64457;51.976;9.834;2024-02-28T08:02:16;7.10;98.00
75824;DHT22;64457;51.976;9.834;2024-02-28T08:04:46;7.10;97.80
75824;DHT22;64457;51.976;9.834;2024-02-28T08:07:15;7.00;98.00
75824;DHT22;64457;51.976;9.834;2024-02-28T08:09:44;6.90;98.40
75824;DHT22;64457;51.976;9.834;2024-02-28T08:12:11;7.00;98.70
75824;DHT22;64457;51.976;9.834;2024-02-28T08:14:38;7.40;98.50
75824;DHT22;64457;51.976;9.834;2024-02-28T08:17:06;7.70;97.90
75824;DHT22;64457;51.976;9.834;2024-02-28T08:19:34;8.00;97.40
75824;DHT22;64457;51.976;9.834;2024-02-28T08:22:01;8.20;96.50
75824;DHT22;64457;51.976;9.834;2024-02-28T08:24:29;7.90;96.70
75824;DHT22;64457;51.976;9.834;2024-02-28T08:26:58;7.70;96.90
75824;DHT22;64457;51.976;9.834;2024-02-28T08:29:25;7.80;97.20
75824;DHT22;64457;51.976;9.834;2024-02-28T08:31:53;7.70;97.10
75824;DHT22;64457;51.976;9.834;2024-02-28T08:34:20;7.60;97.10
75824;DHT22;64457;51.976;9.834;2024-02-28T08:36:48;7.70;97.50
75824;DHT22;64457;51.976;9.834;2024-02-28T08:39:15;7.90;97.30
75824;DHT22;64457;51.976;9.834;2024-02-28T08:41:46;8.10;97.20
75824;DHT22;64457;51.976;9.834;2024-02-28T08:44:15;8.20;96.60
75824;DHT22;64457;51.976;9.834;2024-02-28T08:46:43;8.30;96.40
75824;DHT22;64457;51.976;9.834;2024-02-28T08:49:13;8.30;96.30
75824;DHT22;64457;51.976;9.834;2024-02-28T08:51:41;8.10;96.70
75824;DHT22;64457;51.976;9.834;2024-02-28T08:54:08;8.10;96.80
75824;DHT22;64457;51.976;9.834;2024-02-28T08:56:36;8.20;97.00
75824;DHT22;64457;51.976;9.834;2024-02-28T08:59:03;8.30;96.70
75824;DHT22;64457;51.976;9.834;2024-02-28T09:01:32;8.50;96.70
75824;DHT22;64457;51.976;9.834;2024-02-28T09:04:00;8.70;96.50
75824;DHT22;64457;51.976;9.834;2024-02-28T09:06:27;8.60;95.80
75824;DHT22;64457;51.976;9.834;2024-02-28T09:08:55;8.60;95.80
75824;DHT22;64457;51.976;9.834;2024-02-28T09:11:25;8.40;96.40
75824;DHT22;64457;51.976;9.834;2024-02-28T09:13:53;8.60;96.70
75824;DHT22;64457;51.976;9.834;2024-02-28T09:16:20;8.90;96.30
75824;DHT22;64457;51.976;9.834;2024-02-28T09:18:49;9.00;95.70
75824;DHT22;64457;51.976;9.834;2024-02-28T09:21:17;8.90;95.70
75824;DHT22;64457;51.976;9.834;2024-02-28T09:23:44;8.80;95.70
75824;DHT22;64457;51.976;9.834;2024-02-28T09:26:12;8.70;95.90
75824;DHT22;64457;51.976;9.834;2024-02-28T09:28:39;8.80;95.90
75824;DHT22;64457;51.976;9.834;2024-02-28T09:31:10;9.00;95.80
75824;DHT22;64457;51.976;9.834;2024-02-28T09:33:38;8.90;96.00
75824;DHT22;64457;51.976;9.834;2024-02-28T09:36:07;9.00;95.60
75824;DHT22;64457;51.976;9.834;2024-02-28T09:38:34;9.40;96.00
75824;DHT22;64457;51.976;9.834;2024-02-28T09:41:02;9.80;95.10
75824;DHT22;64457;51.976;9.834;2024-02-28T09:43:31;10.20;94.30
75824;DHT22;64457;51.976;9.834;2024-02-28T09:46:03;10.40;93.70
75824;DHT22;64457;51.976;9.834;2024-02-28T09:48:36;10.30;93.40
75824;DHT22;64457;51.976;9.834;2024-02-28T09:51:07;10.30;93.50
75824;DHT22;64457;51.976;9.834;2024-02-28T09:53:38;9.70;94.60
75824;DHT22;64457;51.976;9.834;2024-02-28T09:56:06;9.70;95.20
75824;DHT22;64457;51.976;9.834;2024-02-28T09:58:34;10.00;93.80
75824;DHT22;64457;51.976;9.834;2024-02-28T10:01:04;10.10;93.60
75824;DHT22;64457;51.976;9.834;2024-02-28T10:03:36;10.20;93.30
75824;DHT22;64457;51.976;9.834;2024-02-28T10:06:06;10.10;93.50
75824;DHT22;64457;51.976;9.834;2024-02-28T10:08:37;10.00;93.90
75824;DHT22;64457;51.976;9.834;2024-02-28T10:11:05;10.10;93.60
75824;DHT22;64457;51.976;9.834;2024-02-28T10:13:32;10.40;93.60
75824;DHT22;64457;51.976;9.834;2024-02-28T10:15:59;10.40;93.10
75824;DHT22;64457;51.976;9.834;2024-02-28T10:18:30;10.30;93.20
75824;DHT22;64457;51.976;9.834;2024-02-28T10:20:57;10.40;93.40
75824;DHT22;64457;51.976;9.834;2024-02-28T10:23:26;10.60;93.10
75824;DHT22;64457;51.976;9.834;2024-02-28T10:25:54;10.60;93.10
75824;DHT22;64457;51.976;9.834;2024-02-28T10:28:21;10.60;92.80
75824;DHT22;64457;51.976;9.834;2024-02-28T10:30:49;10.30;93.00
75824;DHT22;64457;51.976;9.834;2024-02-28T10:33:16;9.90;93.50
75824;DHT22;64457;51.976;9.834;2024-02-28T10:35:45;9.90;94.30
75824;DHT22;64457;51.976;9.834;2024-02-28T10:38:14;9.90;94.20
75824;DHT22;64457;51.976;9.834;2024-02-28T10:40:43;9.90;94.30
75824;DHT22;64457;51.976;9.834;2024-02-28T10:43:11;9.60;94.70
75824;DHT22;64457;51.976;9.834;2024-02-28T10:45:38;9.80;94.50
75824;DHT22;64457;51.976;9.834;2024-02-28T10:48:07;10.00;93.70
75824;DHT22;64457;51.976;9.834;2024-02-28T10:50:35;10.20;93.40
75824;DHT22;64457;51.976;9.834;2024-02-28T10:53:03;10.30;93.10
75824;DHT22;64457;51.976;9.834;2024-02-28T10:55:33;10.20;93.00
75824;DHT22;64457;51.976;9.834;2024-02-28T10:58:06;10.20;93.60
75824;DHT22;64457;51.976;9.834;2024-02-28T11:00:36;10.50;93.30
75824;DHT22;64457;51.976;9.834;2024-02-28T11:03:05;10.50;93.20
75824;DHT22;64457;51.976;9.834;2024-02-28T11:05:36;10.50;93.30
75824;DHT22;64457;51.976;9.834;2024-02-28T11:08:05;10.70;93.40
75824;DHT22;64457;51.976;9.834;2024-02-28T11:10:35;10.80;92.70
75824;DHT22;64457;51.976;9.834;2024-02-28T11:13:08;10.50;92.70
75824;DHT22;64457;51.976;9.834;2024-02-28T11:15:37;10.60;93.10
75824;DHT22;64457;51.976;9.834;2024-02-28T11:18:08;11.00;93.00
75824;DHT22;64457;51.976;9.834;2024-02-28T11:20:36;11.20;92.40
75824;DHT22;64457;51.976;9.834;2024-02-28T11:23:06;11.40;92.40
75824;DHT22;64457;51.976;9.834;2024-02-28T11:25:34;11.60;91.60
75824;DHT22;64457;51.976;9.834;2024-02-28T11:28:02;11.60;91.60
75824;DHT22;64457;51.976;9.834;2024-02-28T11:30:31;11.30;91.60
75824;DHT22;64457;51.976;9.834;2024-02-28T11:32:58;11.00;92.20
75824;DHT22;64457;51.976;9.834;2024-02-28T11:35:26;11.10;92.10
75824;DHT22;64457;51.976;9.834;2024-02-28T11:37:55;11.00;92.30
75824;DHT22;64457;51.976;9.834;2024-02-28T11:40:23;10.70;92.00
75824;DHT22;64457;51.976;9.834;2024-02-28T11:42:52;10.60;92.20
75824;DHT22;64457;51.976;9.834;2024-02-28T11:45:19;10.40;92.10
75824;DHT22;64457;51.976;9.834;2024-02-28T11:47:48;10.70;92.90
75824;DHT22;64457;51.976;9.834;2024-02-28T11:50:15;11.10;92.70
75824;DHT22;64457;51.976;9.834;2024-02-28T11:52:44;11.30;91.90
75824;DHT22;64457;51.976;9.834;2024-02-28T11:55:12;11.60;91.60
75824;DHT22;64457;51.976;9.834;2024-02-28T11:57:39;11.50;91.10
75824;DHT22;64457;51.976;9.834;2024-02-28T12:00:08;11.40;91.40
75824;DHT22;64457;51.976;9.834;2024-02-28T12:02:38;11.50;91.30
75824;DHT22;64457;51.976;9.834;2024-02-28T12:05:08;11.50;91.20
75824;DHT22;64457;51.976;9.834;2024-02-28T12:07:36;11.70;90.90
75824;DHT22;64457;51.976;9.834;2024-02-28T12:10:05;11.70;90.90
75824;DHT22;64457;51.976;9.834;2024-02-28T12:12:34;11.90;90.40
75824;DHT22;64457;51.976;9.834;2024-02-28T12:15:02;11.90;90.50
75824;DHT22;64457;51.976;9.834;2024-02-28T12:17:31;12.30;91.80
75824;DHT22;64457;51.976;9.834;2024-02-28T12:19:59;12.70;90.30
75824;DHT22;64457;51.976;9.834;2024-02-28T12:22:28;13.10;88.70
75824;DHT22;64457;51.976;9.834;2024-02-28T12:24:55;13.10;87.80
75824;DHT22;64457;51.976;9.834;2024-02-28T12:27:23;13.00;87.70
75824;DHT22;64457;51.976;9.834;2024-02-28T12:29:51;12.70;87.60
75824;DHT22;64457;51.976;9.834;2024-02-28T12:32:18;12.60;85.80
75824;DHT22;64457;51.976;9.834;2024-02-28T12:34:47;12.60;87.90
75824;DHT22;64457;51.976;9.834;2024-02-28T12:37:15;12.50;87.80
75824;DHT22;64457;51.976;9.834;2024-02-28T12:39:44;13.00;87.80
75824;DHT22;64457;51.976;9.834;2024-02-28T12:42:13;12.80;85.50
75824;DHT22;64457;51.976;9.834;2024-02-28T12:44:40;12.50;88.40
75824;DHT22;64457;51.976;9.834;2024-02-28T12:47:11;12.70;88.70
75824;DHT22;64457;51.976;9.834;2024-02-28T12:49:39;12.10;90.60
75824;DHT22;64457;51.976;9.834;2024-02-28T12:52:06;12.40;89.90
75824;DHT22;64457;51.976;9.834;2024-02-28T12:54:36;12.30;89.60
75824;DHT22;64457;51.976;9.834;2024-02-28T12:57:05;12.60;87.60
75824;DHT22;64457;51.976;9.834;2024-02-28T12:59:34;12.00;87.90
75824;DHT22;64457;51.976;9.834;2024-02-28T13:02:02;12.00;90.30
75824;DHT22;64457;51.976;9.834;2024-02-28T13:04:30;12.60;87.30
75824;DHT22;64457;51.976;9.834;2024-02-28T13:06:57;12.50;88.90
75824;DHT22;64457;51.976;9.834;2024-02-28T13:09:25;12.80;86.90
75824;DHT22;64457;51.976;9.834;2024-02-28T13:11:52;13.60;87.90
75824;DHT22;64457;51.976;9.834;2024-02-28T13:14:21;14.10;86.90
75824;DHT22;64457;51.976;9.834;2024-02-28T13:16:48;14.70;85.60
75824;DHT22;64457;51.976;9.834;2024-02-28T13:19:18;14.80;81.20
75824;DHT22;64457;51.976;9.834;2024-02-28T13:21:45;15.00;82.90
75824;DHT22;64457;51.976;9.834;2024-02-28T13:24:13;15.20;81.30
75824;DHT22;64457;51.976;9.834;2024-02-28T13:26:42;15.50;79.70
75824;DHT22;64457;51.976;9.834;2024-02-28T13:29:09;15.20;82.00
75824;DHT22;64457;51.976;9.834;2024-02-28T13:31:38;15.30;80.90
75824;DHT22;64457;51.976;9.834;2024-02-28T13:34:05;15.50;77.50
75824;DHT22;64457;51.976;9.834;2024-02-28T13:36:32;14.90;79.40
75824;DHT22;64457;51.976;9.834;2024-02-28T13:39:02;14.60;80.90
75824;DHT22;64457;51.976;9.834;2024-02-28T13:41:30;14.60;80.30
75824;DHT22;64457;51.976;9.834;2024-02-28T13:43:58;14.60;80.00
75824;DHT22;64457;51.976;9.834;2024-02-28T13:46:25;14.80;79.00
75824;DHT22;64457;51.976;9.834;2024-02-28T13:48:54;14.20;77.30
75824;DHT22;64457;51.976;9.834;2024-02-28T13:51:21;13.70;78.20
75824;DHT22;64457;51.976;9.834;2024-02-28T13:53:48;13.70;80.20
75824;DHT22;64457;51.976;9.834;2024-02-28T13:56:17;13.90;80.20
75824;DHT22;64457;51.976;9.834;2024-02-28T13:58:45;14.20;80.00
75824;DHT22;64457;51.976;9.834;2024-02-28T14:01:12;14.30;79.50
75824;DHT22;64457;51.976;9.834;2024-02-28T14:03:40;13.90;79.00
75824;DHT22;64457;51.976;9.834;2024-02-28T14:06:08;14.00;79.20
75824;DHT22;64457;51.976;9.834;2024-02-28T14:08:36;13.80;79.60
75824;DHT22;64457;51.976;9.834;2024-02-28T14:11:03;13.70;77.00
75824;DHT22;64457;51.976;9.834;2024-02-28T14:13:31;13.60;78.90
75824;DHT22;64457;51.976;9.834;2024-02-28T14:15:58;13.50;77.00
75824;DHT22;64457;51.976;9.834;2024-02-28T14:18:25;13.50;80.30
75824;DHT22;64457;51.976;9.834;2024-02-28T14:20:53;13.60;78.30
75824;DHT22;64457;51.976;9.834;2024-02-28T14:23:25;13.70;79.10
75824;DHT22;64457;51.976;9.834;2024-02-28T14:25:52;13.70;79.40
75824;DHT22;64457;51.976;9.834;2024-02-28T14:28:19;13.90;80.90
75824;DHT22;64457;51.976;9.834;2024-02-28T14:30:47;13.80;79.70
75824;DHT22;64457;51.976;9.834;2024-02-28T14:33:15;13.30;79.50
75824;DHT22;64457;51.976;9.834;2024-02-28T14:35:42;12.80;81.30
75824;DHT22;64457;51.976;9.834;2024-02-28T14:38:10;12.40;83.10
75824;DHT22;64457;51.976;9.834;2024-02-28T14:40:39;12.30;84.80
75824;DHT22;64457;51.976;9.834;2024-02-28T14:43:07;12.80;85.10
75824;DHT22;64457;51.976;9.834;2024-02-28T14:45:35;13.30;83.80
75824;DHT22;64457;51.976;9.834;2024-02-28T14:48:03;13.60;82.20
75824;DHT22;64457;51.976;9.834;2024-02-28T14:50:31;13.70;82.20
75824;DHT22;64457;51.976;9.834;2024-02-28T14:52:58;13.60;82.40
75824;DHT22;64457;51.976;9.834;2024-02-28T14:55:26;13.40;83.20
75824;DHT22;64457;51.976;9.834;2024-02-28T14:57:55;13.10;84.00
75824;DHT22;64457;51.976;9.834;2024-02-28T15:00:22;12.80;85.00
75824;DHT22;64457;51.976;9.834;2024-02-28T15:02:49;12.90;85.30
75824;DHT22;64457;51.976;9.834;2024-02-28T15:05:19;12.70;85.10
75824;DHT22;64457;51.976;9.834;2024-02-28T15:07:47;11.90;85.60
75824;DHT22;64457;51.976;9.834;2024-02-28T15:10:14;11.70;88.10
75824;DHT22;64457;51.976;9.834;2024-02-28T15:12:41;11.80;88.30
75824;DHT22;64457;51.976;9.834;2024-02-28T15:15:12;11.80;88.10
75824;DHT22;64457;51.976;9.834;2024-02-28T15:17:40;12.40;87.50
75824;DHT22;64457;51.976;9.834;2024-02-28T15:20:08;12.40;87.00
75824;DHT22;64457;51.976;9.834;2024-02-28T15:22:37;12.50;88.00
75824;DHT22;64457;51.976;9.834;2024-02-28T15:25:05;12.60;85.70
75824;DHT22;64457;51.976;9.834;2024-02-28T15:27:33;12.10;87.10
75824;DHT22;64457;51.976;9.834;2024-02-28T15:30:01;12.00;87.50
75824;DHT22;64457;51.976;9.834;2024-02-28T15:32:31;11.80;88.50
75824;DHT22;64457;51.976;9.834;2024-02-28T15:34:59;11.60;88.40
75824;DHT22;64457;51.976;9.834;2024-02-28T15:37:26;11.60;89.20
75824;DHT22;64457;51.976;9.834;2024-02-28T15:39:54;11.30;90.10
75824;DHT22;64457;51.976;9.834;2024-02-28T15:42:25;11.30;90.00
75824;DHT22;64457;51.976;9.834;2024-02-28T15:44:52;11.20;90.40